Time;durP1;ratioP1;P1;durP2;ratioP2;P2;SDS_P1;SDS_P2;PMS_P1;PMS_P2;Temp;Humidity;BMP_temperature;BMP_pressure;BME280_temperature;BME280_humidity;BME280_pressure;Samples;Min_cycle;Max_cycle;Signal;HPM_P1;HPM_P2
2023/06/08 00:01:39;;;;;;;9.80;3.58;;;;;;;20.73;46.48;101720.91;6191956;23;20332;-65
2023/06/08 00:04:07;;;;;;;12.43;4.13;;;;;;;20.71;46.62;101723.09;6192099;23;20056;-66
2023/06/08 00:06:37;;;;;;;10.68;4.00;;;;;;;20.71;46.70;101720.34;6192033;23;20064;-66
2023/06/08 00:09:05;;;;;;;8.10;4.43;;;;;;;20.69;46.72;101716.25;6190364;23;20029;-64
2023/06/08 00:11:33;;;;;;;10.02;4.15;;;;;;;20.66;46.66;101717.59;6190690;23;20029;-64
2023/06/08 00:14:02;;;;;;;10.27;4.28;;;;;;;20.66;46.67;101714.06;6192671;23;20079;-66
2023/06/08 00:16:30;;;;;;;9.35;3.70;;;;;;;20.62;46.73;101713.75;6189561;23;20028;-66
2023/06/08 00:18:58;;;;;;;8.02;4.28;;;;;;;20.61;46.81;101717.59;6190155;23;20076;-64
2023/06/08 00:21:29;;;;;;;11.90;4.35;;;;;;;20.60;46.62;101718.66;6189471;23;20029;-65
2023/06/08 00:23:57;;;;;;;11.70;3.97;;;;;;;20.59;46.67;101719.75;6190263;23;20029;-65
2023/06/08 00:26:26;;;;;;;10.13;4.10;;;;;;;20.57;46.83;101719.22;6189139;23;20024;-65
2023/06/08 00:28:53;;;;;;;12.75;4.70;;;;;;;20.55;46.71;101715.91;6190216;23;20494;-65
2023/06/08 00:31:22;;;;;;;8.43;4.28;;;;;;;20.53;46.86;101704.44;6190239;23;20025;-66
2023/06/08 00:33:50;;;;;;;12.32;4.03;;;;;;;20.51;46.85;101711.25;6191448;23;20096;-65
2023/06/08 00:36:19;;;;;;;10.15;5.13;;;;;;;20.50;46.74;101706.88;6191470;23;20029;-65
2023/06/08 00:38:47;;;;;;;8.25;4.18;;;;;;;20.47;46.96;101708.25;6191286;23;20025;-65
2023/06/08 00:41:14;;;;;;;13.63;5.13;;;;;;;20.43;46.81;101704.41;6189469;23;20036;-66
2023/06/08 00:43:44;;;;;;;10.57;5.20;;;;;;;20.34;46.89;101693.13;6190977;23;20359;-65
2023/06/08 00:46:14;;;;;;;9.80;4.30;;;;;;;20.40;46.85;101702.22;6189585;23;20029;-66
2023/06/08 00:48:44;;;;;;;8.88;4.13;;;;;;;20.38;46.99;101698.88;6189969;23;20085;-66
2023/06/08 00:51:12;;;;;;;11.07;4.00;;;;;;;20.37;46.81;101700.78;6190712;23;20033;-64
2023/06/08 00:53:40;;;;;;;9.98;4.30;;;;;;;20.35;46.84;101693.97;6191925;23;20025;-65
2023/06/08 00:56:08;;;;;;;10.88;3.92;;;;;;;20.34;46.91;101700.50;6190615;23;20060;-64
2023/06/08 00:58:37;;;;;;;11.75;3.97;;;;;;;20.32;47.02;101698.03;6193420;23;20075;-65
2023/06/08 01:01:11;;;;;;;8.52;3.85;;;;;;;20.31;46.87;101698.31;6193511;23;20029;-65
2023/06/08 01:03:40;;;;;;;9.43;3.85;;;;;;;20.30;47.07;101699.41;6193287;23;20081;-65
2023/06/08 01:06:12;;;;;;;10.70;4.07;;;;;;;20.27;47.21;101697.19;6192845;23;20033;-66
2023/06/08 01:08:52;;;;;;;9.73;4.03;;;;;;;20.25;47.31;101700.19;6192742;23;20025;-66
2023/06/08 01:11:29;;;;;;;9.95;4.65;;;;;;;20.24;47.05;101703.19;6191985;23;20064;-66
2023/06/08 01:14:06;;;;;;;11.57;4.40;;;;;;;20.24;47.06;101695.00;6193300;23;20072;-66
2023/06/08 01:16:38;;;;;;;7.88;3.78;;;;;;;20.22;47.04;101689.81;6192352;23;20407;-65
2023/06/08 01:19:10;;;;;;;11.15;4.55;;;;;;;20.21;47.39;101692.81;6193129;23;20044;-66
2023/06/08 01:21:57;;;;;;;10.95;5.30;;;;;;;20.17;47.32;101694.41;6192777;23;20035;-66
2023/06/08 01:24:31;;;;;;;8.82;3.75;;;;;;;20.14;47.33;101693.03;6190712;23;20099;-65
2023/06/08 01:26:59;;;;;;;10.20;4.40;;;;;;;20.14;47.35;101688.41;6190507;23;20020;-66
2023/06/08 01:29:33;;;;;;;9.77;4.10;;;;;;;20.14;47.43;101676.66;6189513;23;20036;-65
2023/06/08 01:32:01;;;;;;;9.82;4.55;;;;;;;20.13;47.48;101683.22;6191669;23;20221;-66
2023/06/08 01:34:29;;;;;;;11.48;4.90;;;;;;;20.11;47.49;101686.19;6190161;23;20025;-66
2023/06/08 01:37:01;;;;;;;11.82;4.13;;;;;;;20.09;47.67;101693.00;6190368;23;20033;-66
2023/06/08 01:39:45;;;;;;;12.38;5.00;;;;;;;20.05;47.77;101679.06;6191522;23;20030;-66
2023/06/08 01:42:18;;;;;;;9.63;4.40;;;;;;;20.04;47.77;101682.06;6190202;23;20061;-66
2023/06/08 01:44:53;;;;;;;11.20;4.68;;;;;;;20.03;47.88;101681.25;6191399;23;20036;-66
2023/06/08 01:47:23;;;;;;;8.20;4.65;;;;;;;20.01;47.78;101675.22;6191335;23;20102;-65
2023/06/08 01:49:53;;;;;;;9.95;4.45;;;;;;;19.97;47.82;101676.84;6191203;23;20024;-66
2023/06/08 01:52:21;;;;;;;10.90;4.70;;;;;;;19.98;47.91;101677.66;6191762;23;20079;-66
2023/06/08 01:54:50;;;;;;;11.43;4.55;;;;;;;19.97;47.99;101670.56;6194293;23;20029;-67
2023/06/08 01:57:18;;;;;;;12.13;5.32;;;;;;;19.88;48.01;101664.78;6192231;23;20029;-66
2023/06/08 01:59:46;;;;;;;12.77;4.50;;;;;;;19.94;48.03;101671.91;6192449;23;20080;-64
2023/06/08 02:02:14;;;;;;;13.18;5.22;;;;;;;19.93;47.99;101670.28;6191798;23;20032;-65
2023/06/08 02:04:42;;;;;;;11.70;4.57;;;;;;;19.93;47.75;101672.19;6192171;23;20164;-66
2023/06/08 02:07:10;;;;;;;11.27;4.95;;;;;;;19.92;48.11;101671.38;6189387;23;20284;-66
2023/06/08 02:09:38;;;;;;;15.45;5.32;;;;;;;19.91;48.12;101672.44;6191818;23;20045;-65
2023/06/08 02:12:08;;;;;;;9.82;4.25;;;;;;;19.90;47.95;101669.97;6190144;23;20060;-66
2023/06/08 02:14:36;;;;;;;12.98;4.55;;;;;;;19.87;48.03;101674.06;6192036;23;20027;-66
2023/06/08 02:17:05;;;;;;;9.68;4.45;;;;;;;19.86;48.08;101677.06;6193530;23;20733;-65
2023/06/08 02:19:34;;;;;;;11.85;4.65;;;;;;;19.82;48.29;101668.56;6194362;23;20021;-66
2023/06/08 02:22:02;;;;;;;12.20;4.50;;;;;;;19.79;48.23;101669.09;6190472;23;20344;-64
2023/06/08 02:24:30;;;;;;;16.38;5.90;;;;;;;19.78;48.28;101672.91;6189630;23;20040;-65
2023/06/08 02:26:58;;;;;;;12.93;4.15;;;;;;;19.75;48.45;101676.16;6189572;23;20033;-65
2023/06/08 02:29:27;;;;;;;9.15;4.45;;;;;;;19.72;48.46;101677.50;6191058;23;20025;-65
2023/06/08 02:31:55;;;;;;;16.52;5.28;;;;;;;19.70;48.53;101676.13;6190548;23;20081;-65
2023/06/08 02:34:24;;;;;;;16.52;5.30;;;;;;;19.69;48.47;101671.75;6191665;23;20025;-64
2023/06/08 02:36:53;;;;;;;9.75;4.05;;;;;;;19.68;48.51;101675.56;6190829;23;20035;-65
2023/06/08 02:39:20;;;;;;;9.57;4.57;;;;;;;19.65;48.67;101676.91;6190763;23;20025;-66
2023/06/08 02:41:48;;;;;;;14.70;4.28;;;;;;;19.64;48.59;101683.44;6189804;23;20029;-65
2023/06/08 02:44:16;;;;;;;12.50;4.30;;;;;;;19.62;48.60;101669.25;6192372;23;20024;-66
2023/06/08 02:46:46;;;;;;;12.40;3.97;;;;;;;19.59;48.70;101677.13;6192373;23;20082;-65
2023/06/08 02:49:14;;;;;;;9.75;5.15;;;;;;;19.56;48.81;101666.75;6194572;23;20035;-66
2023/06/08 02:51:42;;;;;;;13.23;5.28;;;;;;;19.55;48.86;101667.84;6192104;23;20029;-64
2023/06/08 02:54:09;;;;;;;12.18;4.93;;;;;;;19.53;48.82;101670.00;6193709;23;20033;-66
2023/06/08 02:56:37;;;;;;;10.80;4.88;;;;;;;19.51;48.72;101678.41;6193359;23;20037;-66
2023/06/08 02:59:05;;;;;;;12.02;5.00;;;;;;;19.52;48.82;101673.81;6195027;23;20052;-66
2023/06/08 03:01:36;;;;;;;12.85;4.95;;;;;;;19.50;48.88;101672.13;6192921;23;20032;-65
2023/06/08 03:04:06;;;;;;;10.13;4.57;;;;;;;19.49;48.81;101667.78;6192924;23;20048;-63
2023/06/08 03:06:36;;;;;;;11.05;5.50;;;;;;;19.49;49.11;101675.13;6193117;23;20036;-65
2023/06/08 03:09:04;;;;;;;10.27;4.60;;;;;;;19.46;48.97;101672.91;6192715;23;20123;-65
2023/06/08 03:11:32;;;;;;;9.55;4.85;;;;;;;19.45;48.79;101672.09;6192647;23;20056;-64
2023/06/08 03:14:00;;;;;;;14.77;5.03;;;;;;;19.43;48.90;101668.81;6194586;23;20462;-65
2023/06/08 03:16:28;;;;;;;17.33;5.18;;;;;;;19.42;48.93;101667.16;6191980;23;20025;-65
2023/06/08 03:18:56;;;;;;;11.38;4.25;;;;;;;19.40;49.11;101669.34;6193972;23;20309;-65
2023/06/08 03:21:28;;;;;;;12.15;5.45;;;;;;;19.37;48.95;101661.69;6190469;23;20060;-65
2023/06/08 03:23:56;;;;;;;9.23;4.75;;;;;;;19.39;48.85;101672.31;6191992;23;20025;-65
2023/06/08 03:26:24;;;;;;;11.65;4.97;;;;;;;19.36;48.90;101673.66;6191159;23;20020;-65
2023/06/08 03:28:52;;;;;;;11.52;4.63;;;;;;;19.35;49.05;101673.94;6193710;23;20025;-66
2023/06/08 03:31:20;;;;;;;10.85;4.90;;;;;;;19.34;48.90;101675.81;6190774;23;20182;-65
2023/06/08 03:33:48;;;;;;;11.63;4.90;;;;;;;19.33;48.99;101668.72;6191916;23;20021;-66
2023/06/08 03:36:17;;;;;;;11.60;4.63;;;;;;;19.32;48.93;101672.53;6191409;23;20056;-64
2023/06/08 03:38:47;;;;;;;10.25;4.45;;;;;;;19.31;48.85;101670.91;6193653;23;20052;-66
2023/06/08 03:41:16;;;;;;;14.60;4.93;;;;;;;19.30;48.89;101673.88;6192759;23;20025;-66
2023/06/08 03:43:44;;;;;;;11.60;4.65;;;;;;;19.29;49.11;101674.97;6194367;23;20021;-65
2023/06/08 03:46:12;;;;;;;8.73;4.88;;;;;;;19.28;49.08;101668.69;6194170;23;20032;-67
2023/06/08 03:48:40;;;;;;;14.10;5.15;;;;;;;19.25;49.14;101669.22;6193138;23;20039;-65
2023/06/08 03:51:08;;;;;;;12.32;5.50;;;;;;;19.23;49.09;101663.19;6193092;23;20029;-65
2023/06/08 03:53:36;;;;;;;12.77;4.47;;;;;;;19.21;48.97;101661.81;6191716;23;20362;-65
2023/06/08 03:56:05;;;;;;;11.45;5.47;;;;;;;19.18;49.11;101658.53;6190310;23;20028;-66
2023/06/08 03:58:34;;;;;;;11.48;4.93;;;;;;;19.16;49.15;101666.13;6191284;23;20095;-66
2023/06/08 04:01:01;;;;;;;14.20;5.40;;;;;;;19.15;49.19;101661.75;6192079;23;20025;-66
2023/06/08 04:03:29;;;;;;;9.35;4.53;;;;;;;19.14;48.95;101662.84;6191300;23;20056;-64
2023/06/08 04:05:57;;;;;;;10.10;4.20;;;;;;;19.12;48.98;101667.72;6191334;23;20029;-65
2023/06/08 04:08:26;;;;;;;14.25;4.63;;;;;;;19.10;49.29;101660.91;6190664;23;20091;-66
2023/06/08 04:10:54;;;;;;;10.23;4.75;;;;;;;19.06;49.09;101660.63;6189474;23;20457;-64
2023/06/08 04:13:23;;;;;;;9.82;4.35;;;;;;;19.04;49.43;101667.41;6190838;23;20462;-65
2023/06/08 04:15:51;;;;;;;12.77;5.30;;;;;;;19.02;49.35;101675.03;6191412;23;20028;-64
2023/06/08 04:18:19;;;;;;;8.95;4.20;;;;;;;18.99;49.54;101668.19;6192932;23;20025;-64
2023/06/08 04:20:47;;;;;;;13.98;5.68;;;;;;;18.98;49.41;101668.44;6191381;23;20187;-66
2023/06/08 04:23:15;;;;;;;12.82;4.90;;;;;;;18.93;49.47;101661.03;6190347;23;20079;-64
2023/06/08 04:25:43;;;;;;;13.13;5.32;;;;;;;18.95;49.69;101666.22;6189838;23;20107;-64
2023/06/08 04:28:12;;;;;;;11.63;4.53;;;;;;;18.94;49.46;101662.69;6191069;23;20586;-65
2023/06/08 04:30:41;;;;;;;21.08;5.90;;;;;;;18.90;49.21;101664.28;6192163;23;20092;-66
2023/06/08 04:33:09;;;;;;;11.90;4.53;;;;;;;18.93;49.31;101662.94;6192794;23;20028;-65
2023/06/08 04:35:37;;;;;;;16.65;5.03;;;;;;;18.91;49.28;101662.38;6193049;23;20084;-66
2023/06/08 04:38:12;;;;;;;14.43;5.88;;;;;;;18.89;49.32;101662.63;6193147;23;20104;-66
2023/06/08 04:40:41;;;;;;;16.65;5.50;;;;;;;18.87;49.20;101655.81;6192556;23;20063;-65
2023/06/08 04:43:09;;;;;;;10.98;5.43;;;;;;;18.84;49.31;101660.69;6193103;23;20025;-66
2023/06/08 04:45:37;;;;;;;12.60;5.43;;;;;;;18.83;49.24;101655.50;6192041;23;20060;-66
2023/06/08 04:48:07;;;;;;;11.98;5.03;;;;;;;18.81;49.44;101657.66;6193787;23;20021;-67
2023/06/08 04:50:37;;;;;;;12.07;5.50;;;;;;;18.79;49.39;101660.63;6190270;23;20060;-67
2023/06/08 04:53:05;;;;;;;12.40;5.43;;;;;;;18.79;49.48;101657.91;6189089;23;20024;-66
2023/06/08 04:55:33;;;;;;;14.50;4.82;;;;;;;18.78;49.34;101655.44;6190824;23;20497;-66
2023/06/08 04:58:01;;;;;;;14.05;5.13;;;;;;;18.79;49.18;101662.53;6192315;23;20079;-66
2023/06/08 05:00:29;;;;;;;11.38;5.40;;;;;;;18.80;49.04;101659.56;6190422;23;20056;-63
2023/06/08 05:02:57;;;;;;;11.43;4.72;;;;;;;18.82;49.01;101667.47;6190709;23;20095;-63
2023/06/08 05:05:26;;;;;;;13.00;5.35;;;;;;;18.81;49.09;101655.75;6191704;23;20569;-62
2023/06/08 05:07:54;;;;;;;13.70;5.95;;;;;;;18.80;49.20;101656.84;6192461;23;20088;-65
2023/06/08 05:10:22;;;;;;;12.82;4.65;;;;;;;18.83;49.03;101655.50;6192599;23;20052;-64
2023/06/08 05:12:50;;;;;;;8.45;3.95;;;;;;;18.83;48.89;101656.31;6190710;23;20025;-67
2023/06/08 05:15:18;;;;;;;12.85;5.38;;;;;;;18.85;48.75;101653.34;6191768;23;20029;-64
2023/06/08 05:17:46;;;;;;;10.55;4.85;;;;;;;18.86;48.88;101652.25;6192108;23;20021;-63
2023/06/08 05:20:14;;;;;;;12.85;4.88;;;;;;;18.86;49.00;101654.97;6190968;23;20075;-65
2023/06/08 05:22:43;;;;;;;14.30;5.07;;;;;;;18.87;48.87;101655.81;6190842;23;20447;-65
2023/06/08 05:25:11;;;;;;;14.60;5.57;;;;;;;18.87;48.86;101656.63;6191887;23;20024;-67
2023/06/08 05:27:39;;;;;;;13.93;4.95;;;;;;;18.89;49.00;101653.66;6191849;23;20024;-64
2023/06/08 05:30:08;;;;;;;11.55;5.07;;;;;;;18.89;48.73;101653.66;6195024;23;20451;-66
2023/06/08 05:32:36;;;;;;;14.98;5.72;;;;;;;18.88;48.92;101652.81;6188592;23;20029;-66
2023/06/08 05:35:05;;;;;;;12.52;5.47;;;;;;;18.90;49.09;101656.09;6191284;23;20052;-66
2023/06/08 05:37:33;;;;;;;9.93;5.13;;;;;;;18.90;48.87;101653.38;6188668;23;20029;-68
2023/06/08 05:40:03;;;;;;;13.70;6.40;;;;;;;18.91;49.09;101652.31;6190171;23;20032;-66
2023/06/08 05:42:31;;;;;;;12.85;5.45;;;;;;;18.88;49.39;101652.81;6189732;23;20028;-65
2023/06/08 05:44:59;;;;;;;12.38;5.57;;;;;;;18.88;49.17;101649.28;6189950;23;20028;-66
2023/06/08 05:47:27;;;;;;;11.75;4.97;;;;;;;18.88;49.27;101649.28;6190782;23;20032;-65
2023/06/08 05:49:59;;;;;;;14.85;5.43;;;;;;;18.90;49.27;101647.13;6190956;23;20327;-67
2023/06/08 05:52:27;;;;;;;13.30;5.05;;;;;;;18.92;49.41;101647.69;6189785;23;20561;-66
2023/06/08 05:54:55;;;;;;;11.02;5.10;;;;;;;18.94;49.21;101643.63;6191226;23;20029;-66
2023/06/08 05:57:24;;;;;;;13.43;5.15;;;;;;;18.95;49.08;101633.53;6188135;23;20024;-65
2023/06/08 05:59:52;;;;;;;11.23;4.70;;;;;;;18.97;49.25;101645.00;6190615;23;20098;-65
2023/06/08 06:02:19;;;;;;;11.15;4.43;;;;;;;18.96;49.01;101635.19;6190915;23;20537;-67
2023/06/08 06:04:47;;;;;;;14.48;4.75;;;;;;;19.00;49.25;101647.22;6192851;23;20029;-67
2023/06/08 06:07:16;;;;;;;11.38;4.13;;;;;;;19.02;49.20;101653.22;6189804;23;20029;-63
2023/06/08 06:09:43;;;;;;;12.70;5.03;;;;;;;19.02;49.16;101643.16;6192354;23;20038;-63
2023/06/08 06:12:11;;;;;;;12.18;4.70;;;;;;;19.04;49.07;101637.44;6191172;23;20029;-63
2023/06/08 06:14:41;;;;;;;10.52;4.93;;;;;;;19.01;49.20;101638.78;6196685;23;20025;-63
2023/06/08 06:17:11;;;;;;;12.13;4.93;;;;;;;18.99;49.45;101649.13;6194337;23;20034;-62
2023/06/08 06:19:39;;;;;;;18.65;5.07;;;;;;;19.00;49.53;101649.94;6196754;23;20033;-63
2023/06/08 06:22:09;;;;;;;16.08;5.82;;;;;;;19.02;49.40;101639.59;6195023;23;20052;-63
2023/06/08 06:24:37;;;;;;;12.07;4.95;;;;;;;19.03;49.37;101642.06;6197105;23;20041;-63
2023/06/08 06:27:06;;;;;;;13.77;5.43;;;;;;;19.05;49.39;101639.09;6195163;23;20080;-63
2023/06/08 06:29:35;;;;;;;9.85;4.82;;;;;;;19.05;49.43;101639.09;6196871;23;20049;-62
2023/06/08 06:32:05;;;;;;;10.75;4.93;;;;;;;19.11;49.47;101646.19;6196315;23;20021;-62
2023/06/08 06:34:32;;;;;;;11.98;5.32;;;;;;;19.13;49.25;101646.75;6196686;23;20025;-63
2023/06/08 06:37:01;;;;;;;8.60;4.10;;;;;;;19.14;49.37;101642.94;6194105;23;20029;-63
2023/06/08 06:39:29;;;;;;;9.13;4.75;;;;;;;19.16;49.37;101643.50;6192589;23;20051;-64
2023/06/08 06:41:58;;;;;;;8.90;4.30;;;;;;;19.17;49.30;101650.59;6191652;23;20028;-63
2023/06/08 06:44:25;;;;;;;9.32;4.47;;;;;;;19.19;49.29;101651.16;6194595;23;20079;-63
2023/06/08 06:46:53;;;;;;;11.10;4.35;;;;;;;19.21;49.39;101648.19;6194207;23;20029;-63
2023/06/08 06:49:22;;;;;;;12.80;5.03;;;;;;;19.22;49.24;101647.09;6195281;23;20025;-64
2023/06/08 06:51:50;;;;;;;14.00;5.35;;;;;;;19.23;49.36;101651.47;6192610;23;20075;-62
2023/06/08 06:54:18;;;;;;;13.18;5.47;;;;;;;19.24;49.31;101653.94;6194932;23;20020;-63
2023/06/08 06:56:46;;;;;;;12.30;5.20;;;;;;;19.26;49.49;101657.22;6191000;23;20056;-63
2023/06/08 06:59:14;;;;;;;13.63;5.63;;;;;;;19.27;49.30;101656.16;6193041;23;20510;-63
2023/06/08 07:01:41;;;;;;;16.70;5.82;;;;;;;19.28;49.56;101651.50;6193276;23;20367;-62
2023/06/08 07:04:09;;;;;;;11.57;4.57;;;;;;;19.29;49.71;101662.16;6193261;23;20025;-62
2023/06/08 07:06:41;;;;;;;12.73;5.80;;;;;;;19.30;49.59;101654.81;6192713;23;20033;-63
2023/06/08 07:09:09;;;;;;;13.70;5.50;;;;;;;19.30;49.72;101649.34;6193228;23;20100;-61
2023/06/08 07:11:37;;;;;;;11.93;5.53;;;;;;;19.30;49.88;101643.91;6191582;23;20034;-62
2023/06/08 07:14:05;;;;;;;18.38;6.03;;;;;;;19.31;49.88;101656.44;6194992;23;20079;-66
2023/06/08 07:16:33;;;;;;;13.13;5.57;;;;;;;19.32;49.79;101661.63;6194183;23;20025;-62
2023/06/08 07:19:01;;;;;;;12.52;5.05;;;;;;;19.32;49.72;101655.38;6194740;23;20052;-64
2023/06/08 07:21:30;;;;;;;12.73;5.70;;;;;;;19.30;49.78;101652.91;6193897;23;20072;-62
2023/06/08 07:24:15;;;;;;;11.48;5.82;;;;;;;19.34;49.82;101658.66;6194425;23;20024;-63
2023/06/08 07:27:02;;;;;;;12.60;5.57;;;;;;;19.32;49.99;101652.63;6191896;23;20021;-62
2023/06/08 07:29:30;;;;;;;8.70;4.90;;;;;;;19.36;50.22;101657.31;6193603;23;20056;-62
2023/06/08 07:31:58;;;;;;;9.98;5.07;;;;;;;19.37;50.11;101652.69;6193592;23;20025;-63
2023/06/08 07:34:29;;;;;;;10.57;4.38;;;;;;;19.39;50.01;101648.59;6194869;23;20048;-64
2023/06/08 07:36:56;;;;;;;14.52;5.30;;;;;;;19.40;50.19;101650.25;6193439;23;20029;-64
2023/06/08 07:39:25;;;;;;;11.45;5.95;;;;;;;19.40;50.20;101647.53;6193808;23;20025;-66
2023/06/08 07:41:53;;;;;;;10.85;4.88;;;;;;;19.41;50.27;101642.91;6192213;23;20052;-65
2023/06/08 07:44:21;;;;;;;10.13;4.95;;;;;;;19.42;50.27;101645.34;6193940;23;20028;-65
2023/06/08 07:46:49;;;;;;;12.75;5.28;;;;;;;19.42;50.37;101648.09;6193934;23;20075;-65
2023/06/08 07:49:17;;;;;;;12.35;5.60;;;;;;;19.43;50.32;101641.56;6193637;23;20109;-64
2023/06/08 07:51:45;;;;;;;15.80;5.88;;;;;;;19.43;50.47;101643.47;6193716;23;20076;-63
2023/06/08 07:54:13;;;;;;;11.95;5.60;;;;;;;19.45;50.55;101646.75;6192908;23;20071;-65
2023/06/08 07:56:42;;;;;;;11.82;5.30;;;;;;;19.46;50.84;101651.94;6193020;23;20021;-64
2023/06/08 07:59:10;;;;;;;12.85;4.88;;;;;;;19.47;50.69;101648.13;6194265;23;20068;-65
2023/06/08 08:01:38;;;;;;;14.20;4.80;;;;;;;19.48;50.60;101651.66;6193690;23;20029;-65
2023/06/08 08:04:05;;;;;;;10.95;5.15;;;;;;;19.49;50.64;101643.22;6194346;23;20475;-65
2023/06/08 08:06:33;;;;;;;11.30;5.55;;;;;;;19.50;50.96;101639.41;6193863;23;20335;-66
2023/06/08 08:09:01;;;;;;;11.73;5.03;;;;;;;19.53;50.86;101638.09;6193246;23;20025;-65
2023/06/08 08:11:29;;;;;;;11.00;5.68;;;;;;;19.54;50.90;101642.47;6192238;23;20029;-63
2023/06/08 08:13:58;;;;;;;16.48;5.65;;;;;;;19.54;50.83;101634.28;6193274;23;20031;-62
2023/06/08 08:16:26;;;;;;;13.25;6.05;;;;;;;19.56;50.96;101629.41;6193833;23;20028;-63
2023/06/08 08:18:54;;;;;;;12.10;6.75;;;;;;;19.57;51.06;101639.22;6194426;23;20074;-65
2023/06/08 08:21:22;;;;;;;12.32;6.05;;;;;;;19.60;51.16;101640.59;6193353;23;20039;-63
2023/06/08 08:23:50;;;;;;;11.07;5.95;;;;;;;19.60;51.42;101641.44;6194114;23;20021;-63
2023/06/08 08:26:18;;;;;;;11.80;5.53;;;;;;;19.63;51.44;101640.09;6193109;23;20436;-64
2023/06/08 08:28:46;;;;;;;11.85;5.72;;;;;;;19.64;51.55;101639.00;6193979;23;20024;-64
2023/06/08 08:31:15;;;;;;;16.55;5.88;;;;;;;19.65;51.37;101632.47;6193186;23;20033;-63
2023/06/08 08:33:43;;;;;;;11.95;5.13;;;;;;;19.67;51.43;101638.47;6194127;23;20076;-62
2023/06/08 08:36:11;;;;;;;12.65;5.30;;;;;;;19.68;51.34;101629.19;6193398;23;20355;-62
2023/06/08 08:38:39;;;;;;;17.33;5.95;;;;;;;19.69;51.38;101633.56;6192713;23;20028;-63
2023/06/08 08:41:11;;;;;;;11.38;5.82;;;;;;;19.71;51.47;101629.50;6192263;23;20025;-62
2023/06/08 08:43:47;;;;;;;10.35;5.43;;;;;;;19.73;51.50;101626.50;6193926;23;20025;-63
2023/06/08 08:46:18;;;;;;;12.43;5.55;;;;;;;19.74;51.61;101639.06;6193356;23;20538;-64
2023/06/08 08:48:48;;;;;;;11.57;5.30;;;;;;;19.75;51.61;101632.53;6191212;23;20080;-63
2023/06/08 08:51:19;;;;;;;8.45;4.95;;;;;;;19.74;51.69;101625.41;6190774;23;20036;-63
2023/06/08 08:53:49;;;;;;;14.70;5.85;;;;;;;19.79;51.85;101623.53;6191576;23;20104;-63
2023/06/08 08:56:20;;;;;;;13.98;6.20;;;;;;;19.80;51.72;101622.47;6190032;23;20083;-64
2023/06/08 08:58:52;;;;;;;10.15;4.88;;;;;;;19.82;51.80;101625.75;6192511;23;20039;-64
2023/06/08 09:01:23;;;;;;;11.40;5.57;;;;;;;19.88;52.01;101623.03;6191743;23;20025;-64
2023/06/08 09:03:52;;;;;;;10.15;4.68;;;;;;;19.91;51.92;101626.06;6191492;23;20025;-64
2023/06/08 09:06:20;;;;;;;10.85;5.70;;;;;;;19.95;51.97;101623.63;6191715;23;20056;-62
2023/06/08 09:08:49;;;;;;;11.75;5.53;;;;;;;20.00;52.00;101621.75;6190947;23;20128;-63
2023/06/08 09:11:17;;;;;;;9.25;4.93;;;;;;;20.06;51.98;101623.41;6189803;23;20025;-63
2023/06/08 09:13:45;;;;;;;12.68;5.50;;;;;;;20.09;51.83;101619.31;6193740;23;20065;-63
2023/06/08 09:16:14;;;;;;;12.77;5.60;;;;;;;20.12;51.96;101614.16;6192486;23;20040;-64
2023/06/08 09:18:45;;;;;;;9.82;5.30;;;;;;;20.13;52.01;101610.34;6193168;23;20031;-63
2023/06/08 09:21:21;;;;;;;12.75;6.03;;;;;;;20.14;52.08;101616.63;6192458;23;20379;-65
2023/06/08 09:24:04;;;;;;;13.98;5.43;;;;;;;20.15;52.29;101618.25;6191999;23;20025;-62
2023/06/08 09:26:36;;;;;;;10.10;5.18;;;;;;;20.18;52.35;101614.19;6191857;23;20025;-63
2023/06/08 09:29:04;;;;;;;10.88;4.68;;;;;;;20.19;52.17;101607.63;6193425;23;20035;-63
2023/06/08 09:31:34;;;;;;;7.60;5.05;;;;;;;20.21;52.41;101603.53;6192612;23;20029;-63
2023/06/08 09:34:08;;;;;;;12.10;5.15;;;;;;;20.23;52.20;101604.09;6193294;23;20025;-63
2023/06/08 09:36:38;;;;;;;9.30;4.80;;;;;;;20.25;52.24;101601.09;6191534;23;20048;-61
2023/06/08 09:39:07;;;;;;;12.55;5.10;;;;;;;20.27;52.41;101605.19;6191305;23;20072;-63
2023/06/08 09:41:37;;;;;;;12.45;5.13;;;;;;;20.30;52.25;101599.22;6189919;23;20042;-65
2023/06/08 09:44:18;;;;;;;9.68;4.57;;;;;;;20.33;52.40;101593.22;6191411;23;20081;-64
2023/06/08 09:46:46;;;;;;;9.02;4.53;;;;;;;20.34;52.19;101603.03;6192985;23;20053;-64
2023/06/08 09:49:17;;;;;;;9.48;5.18;;;;;;;20.35;52.25;101598.41;6192235;23;20029;-65
2023/06/08 09:51:48;;;;;;;11.73;4.70;;;;;;;20.35;52.48;101598.41;6189750;23;20024;-64
2023/06/08 09:54:16;;;;;;;12.23;4.90;;;;;;;20.41;52.53;101600.91;6191079;23;20028;-64
2023/06/08 09:56:48;;;;;;;11.85;4.63;;;;;;;20.46;52.52;101600.91;6192193;23;20025;-62
2023/06/08 09:59:17;;;;;;;9.48;4.45;;;;;;;20.51;52.27;101602.03;6193369;23;20039;-61
2023/06/08 10:01:49;;;;;;;8.88;4.53;;;;;;;20.53;52.38;101595.19;6193141;23;20025;-62
2023/06/08 10:04:25;;;;;;;10.30;4.30;;;;;;;20.56;52.32;101591.94;6193395;23;20075;-61
2023/06/08 10:06:56;;;;;;;7.22;4.13;;;;;;;20.57;52.17;101588.09;6192018;23;20025;-62
2023/06/08 10:09:28;;;;;;;13.80;6.03;;;;;;;20.58;52.18;101586.19;6192186;23;20025;-62
2023/06/08 10:12:00;;;;;;;11.48;4.90;;;;;;;20.62;52.36;101590.03;6191758;23;20056;-61
2023/06/08 10:14:29;;;;;;;8.82;4.25;;;;;;;20.66;52.30;101591.94;6195257;23;20035;-62
2023/06/08 10:16:58;;;;;;;7.10;4.53;;;;;;;20.70;52.28;101584.03;6195125;23;20402;-61
2023/06/08 10:19:27;;;;;;;9.52;4.07;;;;;;;20.76;52.38;101578.31;6195541;23;20056;-62
2023/06/08 10:21:57;;;;;;;10.68;5.10;;;;;;;20.83;51.77;101585.38;6193945;23;20076;-62
2023/06/08 10:24:27;;;;;;;10.10;4.18;;;;;;;20.86;51.95;101584.84;6191493;23;20035;-63
2023/06/08 10:27:09;;;;;;;11.50;4.40;;;;;;;20.89;51.96;101578.81;6189274;23;20025;-63
2023/06/08 10:29:37;;;;;;;7.22;4.03;;;;;;;20.94;52.12;101567.91;6190601;23;20035;-62
2023/06/08 10:32:09;;;;;;;7.35;4.32;;;;;;;20.98;52.06;101577.19;6190768;23;20104;-62
2023/06/08 10:34:42;;;;;;;7.07;3.90;;;;;;;21.01;51.77;101582.09;6190448;23;20029;-62
2023/06/08 10:37:26;;;;;;;10.70;4.20;;;;;;;21.03;52.05;101575.28;6189112;23;20029;-62
2023/06/08 10:39:55;;;;;;;5.95;3.95;;;;;;;21.09;52.08;101567.88;6188609;23;20052;-62
2023/06/08 10:42:23;;;;;;;7.50;3.78;;;;;;;21.16;52.05;101564.88;6186401;23;20025;-61
2023/06/08 10:44:54;;;;;;;7.40;3.65;;;;;;;21.19;51.71;101553.38;6185492;23;20029;-62
2023/06/08 10:47:23;;;;;;;7.78;3.42;;;;;;;21.23;51.49;101559.97;6185759;23;20033;-63
2023/06/08 10:49:59;;;;;;;8.40;4.03;;;;;;;21.23;51.36;101555.34;6185667;23;20175;-61
2023/06/08 10:52:27;;;;;;;8.98;4.57;;;;;;;21.24;51.29;101553.41;6184931;23;20055;-61
2023/06/08 10:54:57;;;;;;;7.78;3.83;;;;;;;21.25;51.34;101549.59;6188363;23;20036;-62
2023/06/08 10:57:36;;;;;;;9.75;4.38;;;;;;;21.27;51.31;101548.22;6187712;23;20029;-62
2023/06/08 11:00:42;;;;;;;10.05;3.60;;;;;;;21.30;51.51;101542.19;6188908;23;20052;-62
2023/06/08 11:03:12;;;;;;;6.80;4.10;;;;;;;21.36;51.41;101537.53;6189174;23;20036;-61
2023/06/08 11:05:43;;;;;;;13.52;4.60;;;;;;;21.38;51.34;101536.16;6188828;23;20132;-62
2023/06/08 11:08:12;;;;;;;9.13;3.97;;;;;;;21.43;51.57;101536.16;6187315;23;20032;-62
2023/06/08 11:10:41;;;;;;;5.68;3.40;;;;;;;21.49;51.64;101538.88;6185448;23;20056;-62
2023/06/08 11:13:11;;;;;;;7.05;4.07;;;;;;;21.54;51.20;101538.84;6185482;23;20416;-62
2023/06/08 11:15:42;;;;;;;8.90;3.78;;;;;;;21.59;51.45;101525.97;6187024;23;20028;-62
2023/06/08 11:18:11;;;;;;;7.53;3.80;;;;;;;21.63;51.31;101528.97;6187373;23;20029;-62
2023/06/08 11:20:43;;;;;;;8.00;4.45;;;;;;;21.68;50.96;101531.69;6186921;23;20052;-63
2023/06/08 11:23:12;;;;;;;8.63;4.03;;;;;;;21.68;50.48;101527.03;6185733;23;20035;-63
2023/06/08 11:25:41;;;;;;;14.63;4.07;;;;;;;21.72;50.75;101532.78;6186695;23;20028;-62
2023/06/08 11:28:11;;;;;;;7.95;3.60;;;;;;;21.77;51.03;101519.06;6187210;23;20025;-63
2023/06/08 11:30:39;;;;;;;8.18;4.00;;;;;;;21.84;50.93;101521.50;6187739;23;20497;-62